首页
METAR-TAF:

METAR-TAF

机场 :

拉巴特-塞拉国际机场

拉巴特, 摩洛哥

纬度: 34-03N, 经度: 006-46W, 海拔: 84米

当前天气观测

该预报发布于28分钟前的06:30 UTC
风速2节,风向多变
温度 13°C
湿度 82%
气压 1015 hPa
能见度10公里或以上
散云层高于2500英尺
多云层高于20000英尺

METAR: GMME 190630Z VRB02KT 9999 SCT025 BKN200 13/10 Q1015 NOSIG

时间: 06:58 (06:58 UTC)

预报

该预报发布于1小时和58分钟前的05:00 UTC
预报有效从19日的 06点(UTC)到 20日的 12点(UTC)
风速2节,风向多变
能見度: 8000
散云层高于2600英尺
短暂存在
从 19日的 14点(UTC)到 19日的 24点(UTC)
风速10节,风向西北
能见度10公里或以上
1500米以下无云,无积雨云

TAF: GMME 190500Z 1906/2012 VRB02KT 8000 SCT026 TEMPO 1914/1924 32010KT CAVOK

超过4000个机场的气象观测和天气预报(METAR&TAF报告)。

可查询的气象台以黄色和红色小点在地图上表示。

将鼠标移到小点上方,可查看气象台名称。

然后点击查看天气观测和预报。

如需切换地图:点击带黑十字的绿色按钮放大地图;点击带横线的绿色按钮缩小地图;或者点击绿色箭头查看邻近地区的地图。


METAR-TAF: